Garfield, AR

3:28 PM CST on December 26, 2014 (GMT -0600)
Rogers Municipal-Carter | Change Station
CLOSE
Current Station
Airport
Location: Rogers,
Elevation: 1358 ft
Nearby Weather Stations

Elev 1358 ft 36.37 °N, 94.11 °W | Updated 31 minutes ago

Overcast
Overcast
54 °F
Feels Like 54 °F
N
14
Wind Variable Wind from SSE

Today
High -- | Low -- °F
--% Chance of Precip.
Yesterday
High -- | Low -- °F
Precip. -- in
7:25 AM 5:06 PM
Waxing Crescent, 29% visible
Pressure 29.94 in
Visibility 10.0 miles
Clouds Overcast 1400 ft
Dew Point 48 °F
Humidity 80%
Rainfall 0.00 in
Snow Depth Not available.
UV 0 out of 12
Pollen 5.50 out of 12
Air Quality Not available.
Flu Activity Not available.
METAR KROG 262057Z 16012KT 10SM OVC014 12/09 A2994 RMK AO2 SLP138 T01220089 56020

More Conditions Fewer Conditions

Pressure 29.94 in
Visibility 10.0 miles
Clouds Overcast 1400 ft
Dew Point 48 °F
Humidity 80%
Rainfall 0.00 in
Snow Depth Not available.
UV 0 out of 12
Pollen 5.50 out of 12
Air Quality Not available.
Flu Activity Not available.
METAR KROG 262057Z 16012KT 10SM OVC014 12/09 A2994 RMK AO2 SLP138 T01220089 56020

More Conditions Fewer Conditions

Nowcast | as of 3:15 PM CST on December 26, 2014

At 3:15 PM...Doppler radars detected patchy light rain and occasional sprinkles over eastern Oklahoma and western Arkansas. Much of the precipitation was evaporating prior to reaching the ground. Where rainfall has been measured...amounts from a trace to a couple hundredths of an inch have occurred. Through 5:00 PM...occasional light rain and sprinkles will remain possible for the area...with an increase in coverage and intensity expected with time. Measurable rainfall amounts during this time from a trace to a couple hundredths of an inch will remain common.

×

10-Day Weather Forecast

Almanac

Astronomy

Dec. 26, 2014 Rise Set
Actual Time
Civil Twilight
Nautical Twilight
Astronomical Twilight
Moon
Length of Visible Light
Length of Day
Tomorrow will be .
, % of the Moon is Illuminated

Today's Extremes

State Highs State Lows

Community

WunderPhotos

Upload Photos

1,780,718 photos uploaded!

WunderBlogs® & News

Nearby

Air Quality

  Air Quality AQ Index Pollutant
Not available.

Snow Depth

Station Depth Elevation

Earthquake Activity

City Distance Mag. Time & Date
Minimum magnitude displayed is 2.5.

Coastal Water Temperatures

Place Temperature

Nearby Weather Stations